Svartfoss — V2PR3 — position and weather

sailwx.info

Track history (hours):
 
Tides and Currents Weather Stations Pressure Air Temp Water Temp Dewpoint Dewpoint Depression Visibility Wind Speed Wind Dir Waves Ship Positions

Svartfoss

Last reported at 2017-Mar-24 01:32 UTC. Time now 2017-Mar-24 02:13 UTC.
Position N 53°35' W 000°04'.

Length 80 m; draft 5.4 m.

Type: Cargo ship. MMSI: 304882000.

Date/timePositionNaut miles runAvg speedWind from/ knotsBaromVisibWave heightAir tempDewpointWater temp
2017-Mar-24 01:32N 53°35' W 000°04'0 0.0
2017-Mar-24 00:32N 53°35' W 000°04'0 0.0
2017-Mar-23 23:32N 53°35' W 000°04'0 0.0
2017-Mar-23 22:32N 53°35' W 000°04'0 0.0
2017-Mar-23 21:32N 53°35' W 000°04'0 0.0
2017-Mar-23 20:32N 53°35' W 000°04'0 0.0
2017-Mar-23 19:32N 53°35' W 000°04'0 0.0
2017-Mar-23 18:32N 53°35' W 000°04'0 0.0
2017-Mar-23 17:32N 53°35' W 000°04'0 0.0
2017-Mar-23 16:32N 53°35' W 000°04'0 0.0
2017-Mar-23 15:31N 53°35' W 000°04'0 0.0
2017-Mar-23 14:28N 53°35' W 000°04'0 0.1
2017-Mar-23 13:33N 53°35' W 000°04'4 4.1
2017-Mar-23 12:33N 53°35' E 000°02'22 5.3
2017-Mar-23 08:21N 53°29' E 000°38'14 4.8
2017-Mar-23 05:26N 53°21' E 000°58'1312.1
2017-Mar-23 04:24N 53°15' E 001°16'1011.6
2017-Mar-23 03:31N 53°10' E 001°32'1212.1
2017-Mar-23 02:33N 53°07' E 001°50'8614.2
2017-Mar-22 20:32N 52°33' E 004°00'1414.5
2017-Mar-22 19:33N 52°30' E 004°23'8 8.4
2017-Mar-22 18:33N 52°28' E 004°36'2 2.3
2017-Mar-22 17:32N 52°28' E 004°40'0 0.0
2017-Mar-22 16:32N 52°28' E 004°40'0 0.0
2017-Mar-22 15:31N 52°28' E 004°40'0 0.0
2017-Mar-22 14:31N 52°28' E 004°40'0 0.0
2017-Mar-22 13:31N 52°28' E 004°40'0 0.0
2017-Mar-22 12:28N 52°28' E 004°40'0 0.0
2017-Mar-22 11:31N 52°28' E 004°40'0 0.0
2017-Mar-22 10:31N 52°28' E 004°40'0 0.0
2017-Mar-22 09:31N 52°28' E 004°40'0 0.0
2017-Mar-22 08:31N 52°28' E 004°40'0 0.0
2017-Mar-22 07:31N 52°28' E 004°40'0 0.0
2017-Mar-22 06:31N 52°28' E 004°40'0 0.0
2017-Mar-22 05:31N 52°28' E 004°40'0 0.0
2017-Mar-22 04:31N 52°28' E 004°40'0 0.0
2017-Mar-22 03:31N 52°28' E 004°40'0 0.0
2017-Mar-22 02:31N 52°28' E 004°40'0 0.0
2017-Mar-22 01:31N 52°28' E 004°40'0 0.0
2017-Mar-22 00:31N 52°28' E 004°40'0 0.0
2017-Mar-21 23:33N 52°28' E 004°40'3 2.7
2017-Mar-21 22:33N 52°28' E 004°35'9 8.7
2017-Mar-21 21:33N 52°36' E 004°30'1212.0
2017-Mar-21 20:33N 52°48' E 004°31'1212.1
2017-Mar-21 19:33N 53°00' E 004°31'32312.9
2017-Mar-20 18:33N 58°22' E 005°22'1413.6
2017-Mar-20 17:33N 58°36' E 005°23'1313.3
2017-Mar-20 16:33N 58°49' E 005°26'1313.0
2017-Mar-20 15:34N 59°01' E 005°33'1211.5
2017-Mar-20 14:33N 59°05' E 005°54'0 0.2
2017-Mar-20 13:33N 59°06' E 005°54'9 9.5
2017-Mar-20 12:34N 59°07' E 005°36'1111.1
2017-Mar-20 11:33N 59°15' E 005°20'1111.6
2017-Mar-20 10:33N 59°26' E 005°14'1313.1
2017-Mar-20 09:33N 59°38' E 005°19'1413.7
2017-Mar-20 08:33N 59°50' E 005°33'1413.7
2017-Mar-20 07:33N 60°02' E 005°20'1414.3
2017-Mar-20 06:33N 60°15' E 005°09'9 9.1
2017-Mar-20 05:33N 60°23' E 005°19'0 0.0
2017-Mar-20 04:32N 60°23' E 005°19'4 4.3
2017-Mar-20 03:33N 60°24' E 005°11'0 0.0
2017-Mar-20 02:33N 60°24' E 005°11'8 7.7
2017-Mar-20 01:33N 60°29' E 004°60'1413.7
2017-Mar-20 00:33N 60°42' E 004°50'1312.9
2017-Mar-19 23:33N 60°54' E 004°46'1313.0
2017-Mar-19 22:33N 61°07' E 004°45'1312.5
2017-Mar-19 21:33N 61°20' E 004°49'1212.3
2017-Mar-19 20:33N 61°31' E 005°00'1212.1
2017-Mar-19 19:33N 61°43' E 004°57'1212.3
2017-Mar-19 18:33N 61°52' E 005°16'6 5.8
2017-Mar-19 17:33N 61°56' E 005°07'3 3.0
2017-Mar-19 16:33N 61°59' E 005°08'0 0.1
2017-Mar-19 15:33N 61°59' E 005°08'0 0.0
2017-Mar-19 14:33N 61°59' E 005°08'8 7.5
2017-Mar-19 13:33N 62°06' E 005°06'1010.2
2017-Mar-19 12:33N 62°16' E 005°14'1313.2
2017-Mar-19 11:33N 62°19' E 005°42'1212.3
2017-Mar-19 10:32N 62°27' E 006°02'8 7.9
2017-Mar-19 09:33N 62°29' E 006°18'0 0.0
2017-Mar-19 08:33N 62°29' E 006°18'2 2.2
2017-Mar-19 07:33N 62°30' E 006°23'0 0.0
2017-Mar-19 06:33N 62°30' E 006°23'2 1.7
2017-Mar-19 05:33N 62°28' E 006°21'0 0.1
2017-Mar-19 04:33N 62°29' E 006°20'6 5.8
2017-Mar-19 03:33N 62°27' E 006°08'1 1.0
2017-Mar-19 02:33N 62°28' E 006°08'0 0.0
2017-Mar-19 01:33N 62°28' E 006°08'0 0.0
2017-Mar-19 00:33N 62°28' E 006°08'0 0.0
2017-Mar-18 23:33N 62°28' E 006°08'1 1.2
2017-Mar-18 22:32N 62°29' E 006°10'1 0.6
2017-Mar-18 21:33N 62°29' E 006°11'3 3.5
2017-Mar-18 20:33N 62°32' E 006°10'1413.6
2017-Mar-18 19:33N 62°43' E 006°29'1413.8
2017-Mar-18 18:33N 62°54' E 006°46'1312.9
2017-Mar-18 17:33N 63°01' E 007°09'1413.6
2017-Mar-18 16:33N 63°08' E 007°35'1313.4
2017-Mar-18 15:33N 63°15' E 008°01'1413.6
2017-Mar-18 14:33N 63°23' E 008°26'1413.8
2017-Mar-18 13:32N 63°28' E 008°54'1010.0
2017-Mar-18 12:33N 63°34' E 009°12'0 0.0
2017-Mar-18 11:33N 63°34' E 009°12'0 0.0
2017-Mar-18 10:33N 63°34' E 009°12'0 0.0
2017-Mar-18 09:34N 63°34' E 009°12'1111.1
2017-Mar-18 08:33N 63°45' E 009°18'1313.4
2017-Mar-18 07:33N 63°55' E 009°36'1414.2
2017-Mar-18 06:33N 64°06' E 009°58'1414.0
2017-Mar-18 05:33N 64°16' E 010°19'1413.7
2017-Mar-18 04:33N 64°29' E 010°32'1413.7
2017-Mar-18 03:33N 64°41' E 010°49'1414.4
2017-Mar-18 02:33N 64°51' E 011°12'1010.2
2017-Mar-18 01:33N 64°57' E 011°31'1414.0
2017-Mar-18 00:33N 65°09' E 011°50'1413.9
2017-Mar-17 23:33N 65°22' E 012°02'1212.2
2017-Mar-17 22:33N 65°34' E 012°06'1514.6
2017-Mar-17 21:32N 65°47' E 012°20'1414.4
2017-Mar-17 20:34N 66°01' E 012°32'1313.3
2017-Mar-17 19:33N 66°14' E 012°36'1313.3
2017-Mar-17 18:34N 66°21' E 012°08'9 8.8
2017-Mar-17 17:33N 66°30' E 012°05'2 1.9
2017-Mar-17 16:33N 66°29' E 012°10'1414.1
2017-Mar-17 15:33N 66°41' E 012°31'1313.3
2017-Mar-17 14:33N 66°51' E 012°54'1212.3
2017-Mar-17 13:33N 66°60' E 013°14'1312.5
2017-Mar-17 12:33N 67°07' E 013°41'1313.3
2017-Mar-17 11:33N 67°15' E 014°08'1313.3
2017-Mar-17 10:33N 67°26' E 014°26'1413.5
2017-Mar-17 09:33N 67°39' E 014°15'1212.3
2017-Mar-17 08:33N 67°51' E 014°05'1212.5
2017-Mar-17 07:33N 68°02' E 013°56'5 5.1
2017-Mar-17 06:33N 68°07' E 013°50'1 0.6
2017-Mar-17 05:33N 68°07' E 013°50'1212.0
2017-Mar-17 04:33N 68°15' E 014°13'1212.1
2017-Mar-17 03:33N 68°26' E 014°28'8 8.3
2017-Mar-17 02:33N 68°30' E 014°48'0 0.0
2017-Mar-17 01:33N 68°30' E 014°48'1110.5
2017-Mar-17 00:33N 68°36' E 015°12'8 8.1
2017-Mar-16 23:33N 68°42' E 015°25'0 0.0
2017-Mar-16 22:33N 68°42' E 015°25'0 0.0
2017-Mar-16 21:32N 68°42' E 015°25'0 0.0
2017-Mar-16 20:32N 68°42' E 015°25'0 0.0
2017-Mar-16 19:33N 68°42' E 015°25'3 2.8
2017-Mar-16 18:32N 68°44' E 015°31'0 0.0
2017-Mar-16 17:33N 68°44' E 015°31'0 0.0
2017-Mar-16 16:33N 68°44' E 015°31'0 0.3
2017-Mar-16 15:33N 68°44' E 015°30'1312.5
2017-Mar-16 14:33N 68°56' E 015°36'1110.6
2017-Mar-16 13:34N 68°58' E 016°05'1312.7
2017-Mar-16 12:33N 68°53' E 016°38'1414.1
2017-Mar-16 11:33N 68°60' E 017°12'1313.3
2017-Mar-16 10:33N 69°08' E 017°41'1010.4
2017-Mar-16 09:33N 69°16' E 017°58'9 8.4
2017-Mar-16 08:33N 69°24' E 018°09'2 2.3
2017-Mar-16 07:33N 69°26' E 018°07'1313.2
2017-Mar-16 06:34N 69°33' E 018°39'8 7.6
2017-Mar-16 05:33N 69°38' E 018°57'0 0.0
2017-Mar-16 04:33N 69°38' E 018°57'0 0.0
2017-Mar-16 03:33N 69°38' E 018°57'0 0.0
2017-Mar-16 02:34N 69°38' E 018°57'2 1.9
2017-Mar-16 01:33N 69°39' E 018°58'0 0.0
2017-Mar-16 00:34N 69°39' E 018°58'0 0.0
2017-Mar-15 23:33N 69°39' E 018°58'0 0.0
2017-Mar-15 22:33N 69°39' E 018°58'0 0.0
2017-Mar-15 21:33N 69°39' E 018°58'0 0.0
2017-Mar-15 20:34N 69°39' E 018°58'0 0.0
2017-Mar-15 19:34N 69°39' E 018°58'0 0.0
2017-Mar-15 18:34N 69°39' E 018°58'0 0.0
2017-Mar-15 17:33N 69°39' E 018°58'0 0.0
2017-Mar-15 16:34N 69°39' E 018°58'2 1.8
2017-Mar-15 15:33N 69°41' E 019°01'1313.2
2017-Mar-15 14:33N 69°49' E 019°32'1414.5
2017-Mar-15 13:33N 69°57' E 020°07'1414.1
2017-Mar-15 12:33N 70°02' E 020°45'1413.9
2017-Mar-15 11:33N 70°14' E 021°09'1414.6
2017-Mar-15 10:33N 70°23' E 021°40'1414.0
2017-Mar-15 09:34N 70°17' E 022°18'3 3.1
2017-Mar-15 08:33N 70°14' E 022°21'3 3.1
2017-Mar-15 07:33N 70°17' E 022°19'1413.7
2017-Mar-15 06:33N 70°28' E 022°45'1414.6
2017-Mar-15 05:33N 70°37' E 023°19'6 6.4
2017-Mar-15 04:33N 70°38' E 023°38'0 0.0
2017-Mar-15 03:33N 70°38' E 023°38'0 0.0
2017-Mar-15 02:33N 70°38' E 023°38'0 0.0
2017-Mar-15 01:33N 70°38' E 023°38'1 0.7
2017-Mar-15 00:33N 70°38' E 023°40'0 0.0
2017-Mar-14 23:33N 70°38' E 023°40'3 3.5
2017-Mar-14 22:33N 70°40' E 023°31'1414.4
2017-Mar-14 21:33N 70°51' E 023°58'1515.4
2017-Mar-14 20:33N 71°02' E 024°32'4 4.3
2017-Mar-14 19:33N 70°60' E 024°44'1515.5
2017-Mar-14 18:33N 70°56' E 025°30'1414.4
2017-Mar-14 17:33N 70°56' E 026°14'1414.4
2017-Mar-14 16:32N 71°00' E 026°56'1414.0
2017-Mar-14 15:33N 71°07' E 027°33'1413.4
2017-Mar-14 14:33N 71°07' E 028°15'1414.6
2017-Mar-14 13:33N 70°59' E 028°53'1514.9
2017-Mar-14 12:33N 70°50' E 029°30'1313.1
2017-Mar-14 11:33N 70°39' E 029°47'1 1.4
2017-Mar-14 10:33N 70°38' E 029°43'0 0.0
2017-Mar-14 09:33N 70°38' E 029°43'0 0.0
2017-Mar-14 08:33N 70°38' E 029°43'0 0.0
2017-Mar-14 07:33N 70°38' E 029°43'0 0.0
2017-Mar-14 06:32N 70°38' E 029°43'0 0.0
2017-Mar-14 05:33N 70°38' E 029°43'1 0.7
2017-Mar-14 04:33N 70°38' E 029°45'1211.5
2017-Mar-14 03:33N 70°40' E 030°19'1514.8
2017-Mar-14 02:33N 70°32' E 030°55'1514.8
2017-Mar-14 01:33N 70°23' E 031°32'  
Track history (hours):
 
Tides and Currents Weather Stations Pressure Air Temp Water Temp Dewpoint Dewpoint Depression Visibility Wind Speed Wind Dir Waves Ship Positions

Svartfoss

Last reported at 2017-Mar-24 01:32 UTC. Time now 2017-Mar-24 02:13 UTC.
Position N 53°35' W 000°04'.

Length 80 m; draft 5.4 m.

Type: Cargo ship. MMSI: 304882000.

Date/timePositionNaut miles runAvg speedWind from/ knotsBaromVisibWave heightAir tempDewpointWater temp
2017-Mar-24 01:32N 53°35' W 000°04'0 0.0
2017-Mar-24 00:32N 53°35' W 000°04'0 0.0
2017-Mar-23 23:32N 53°35' W 000°04'0 0.0
2017-Mar-23 22:32N 53°35' W 000°04'0 0.0
2017-Mar-23 21:32N 53°35' W 000°04'0 0.0
2017-Mar-23 20:32N 53°35' W 000°04'0 0.0
2017-Mar-23 19:32N 53°35' W 000°04'0 0.0
2017-Mar-23 18:32N 53°35' W 000°04'0 0.0
2017-Mar-23 17:32N 53°35' W 000°04'0 0.0
2017-Mar-23 16:32N 53°35' W 000°04'0 0.0
2017-Mar-23 15:31N 53°35' W 000°04'0 0.0
2017-Mar-23 14:28N 53°35' W 000°04'0 0.1
2017-Mar-23 13:33N 53°35' W 000°04'4 4.1
2017-Mar-23 12:33N 53°35' E 000°02'22 5.3
2017-Mar-23 08:21N 53°29' E 000°38'14 4.8
2017-Mar-23 05:26N 53°21' E 000°58'1312.1
2017-Mar-23 04:24N 53°15' E 001°16'1011.6
2017-Mar-23 03:31N 53°10' E 001°32'1212.1
2017-Mar-23 02:33N 53°07' E 001°50'8614.2
2017-Mar-22 20:32N 52°33' E 004°00'1414.5
2017-Mar-22 19:33N 52°30' E 004°23'8 8.4
2017-Mar-22 18:33N 52°28' E 004°36'2 2.3
2017-Mar-22 17:32N 52°28' E 004°40'0 0.0
2017-Mar-22 16:32N 52°28' E 004°40'0 0.0
2017-Mar-22 15:31N 52°28' E 004°40'0 0.0
2017-Mar-22 14:31N 52°28' E 004°40'0 0.0
2017-Mar-22 13:31N 52°28' E 004°40'0 0.0
2017-Mar-22 12:28N 52°28' E 004°40'0 0.0
2017-Mar-22 11:31N 52°28' E 004°40'0 0.0
2017-Mar-22 10:31N 52°28' E 004°40'0 0.0
2017-Mar-22 09:31N 52°28' E 004°40'0 0.0
2017-Mar-22 08:31N 52°28' E 004°40'0 0.0
2017-Mar-22 07:31N 52°28' E 004°40'0 0.0
2017-Mar-22 06:31N 52°28' E 004°40'0 0.0
2017-Mar-22 05:31N 52°28' E 004°40'0 0.0
2017-Mar-22 04:31N 52°28' E 004°40'0 0.0
2017-Mar-22 03:31N 52°28' E 004°40'0 0.0
2017-Mar-22 02:31N 52°28' E 004°40'0 0.0
2017-Mar-22 01:31N 52°28' E 004°40'0 0.0
2017-Mar-22 00:31N 52°28' E 004°40'0 0.0
2017-Mar-21 23:33N 52°28' E 004°40'3 2.7
2017-Mar-21 22:33N 52°28' E 004°35'9 8.7
2017-Mar-21 21:33N 52°36' E 004°30'1212.0
2017-Mar-21 20:33N 52°48' E 004°31'1212.1
2017-Mar-21 19:33N 53°00' E 004°31'32312.9
2017-Mar-20 18:33N 58°22' E 005°22'1413.6
2017-Mar-20 17:33N 58°36' E 005°23'1313.3
2017-Mar-20 16:33N 58°49' E 005°26'1313.0
2017-Mar-20 15:34N 59°01' E 005°33'1211.5
2017-Mar-20 14:33N 59°05' E 005°54'0 0.2
2017-Mar-20 13:33N 59°06' E 005°54'9 9.5
2017-Mar-20 12:34N 59°07' E 005°36'1111.1
2017-Mar-20 11:33N 59°15' E 005°20'1111.6
2017-Mar-20 10:33N 59°26' E 005°14'1313.1
2017-Mar-20 09:33N 59°38' E 005°19'1413.7
2017-Mar-20 08:33N 59°50' E 005°33'1413.7
2017-Mar-20 07:33N 60°02' E 005°20'1414.3
2017-Mar-20 06:33N 60°15' E 005°09'9 9.1
2017-Mar-20 05:33N 60°23' E 005°19'0 0.0
2017-Mar-20 04:32N 60°23' E 005°19'4 4.3
2017-Mar-20 03:33N 60°24' E 005°11'0 0.0
2017-Mar-20 02:33N 60°24' E 005°11'8 7.7
2017-Mar-20 01:33N 60°29' E 004°60'1413.7
2017-Mar-20 00:33N 60°42' E 004°50'1312.9
2017-Mar-19 23:33N 60°54' E 004°46'1313.0
2017-Mar-19 22:33N 61°07' E 004°45'1312.5
2017-Mar-19 21:33N 61°20' E 004°49'1212.3
2017-Mar-19 20:33N 61°31' E 005°00'1212.1
2017-Mar-19 19:33N 61°43' E 004°57'1212.3
2017-Mar-19 18:33N 61°52' E 005°16'6 5.8
2017-Mar-19 17:33N 61°56' E 005°07'3 3.0
2017-Mar-19 16:33N 61°59' E 005°08'0 0.1
2017-Mar-19 15:33N 61°59' E 005°08'0 0.0
2017-Mar-19 14:33N 61°59' E 005°08'8 7.5
2017-Mar-19 13:33N 62°06' E 005°06'1010.2
2017-Mar-19 12:33N 62°16' E 005°14'1313.2
2017-Mar-19 11:33N 62°19' E 005°42'1212.3
2017-Mar-19 10:32N 62°27' E 006°02'8 7.9
2017-Mar-19 09:33N 62°29' E 006°18'0 0.0
2017-Mar-19 08:33N 62°29' E 006°18'2 2.2
2017-Mar-19 07:33N 62°30' E 006°23'0 0.0
2017-Mar-19 06:33N 62°30' E 006°23'2 1.7
2017-Mar-19 05:33N 62°28' E 006°21'0 0.1
2017-Mar-19 04:33N 62°29' E 006°20'6 5.8
2017-Mar-19 03:33N 62°27' E 006°08'1 1.0
2017-Mar-19 02:33N 62°28' E 006°08'0 0.0
2017-Mar-19 01:33N 62°28' E 006°08'0 0.0
2017-Mar-19 00:33N 62°28' E 006°08'0 0.0
2017-Mar-18 23:33N 62°28' E 006°08'1 1.2
2017-Mar-18 22:32N 62°29' E 006°10'1 0.6
2017-Mar-18 21:33N 62°29' E 006°11'3 3.5
2017-Mar-18 20:33N 62°32' E 006°10'1413.6
2017-Mar-18 19:33N 62°43' E 006°29'1413.8
2017-Mar-18 18:33N 62°54' E 006°46'1312.9
2017-Mar-18 17:33N 63°01' E 007°09'1413.6
2017-Mar-18 16:33N 63°08' E 007°35'1313.4
2017-Mar-18 15:33N 63°15' E 008°01'1413.6
2017-Mar-18 14:33N 63°23' E 008°26'1413.8
2017-Mar-18 13:32N 63°28' E 008°54'1010.0
2017-Mar-18 12:33N 63°34' E 009°12'0 0.0
2017-Mar-18 11:33N 63°34' E 009°12'0 0.0
2017-Mar-18 10:33N 63°34' E 009°12'0 0.0
2017-Mar-18 09:34N 63°34' E 009°12'1111.1
2017-Mar-18 08:33N 63°45' E 009°18'1313.4
2017-Mar-18 07:33N 63°55' E 009°36'1414.2
2017-Mar-18 06:33N 64°06' E 009°58'1414.0
2017-Mar-18 05:33N 64°16' E 010°19'1413.7
2017-Mar-18 04:33N 64°29' E 010°32'1413.7
2017-Mar-18 03:33N 64°41' E 010°49'1414.4
2017-Mar-18 02:33N 64°51' E 011°12'1010.2
2017-Mar-18 01:33N 64°57' E 011°31'1414.0
2017-Mar-18 00:33N 65°09' E 011°50'1413.9
2017-Mar-17 23:33N 65°22' E 012°02'1212.2
2017-Mar-17 22:33N 65°34' E 012°06'1514.6
2017-Mar-17 21:32N 65°47' E 012°20'1414.4
2017-Mar-17 20:34N 66°01' E 012°32'1313.3
2017-Mar-17 19:33N 66°14' E 012°36'1313.3
2017-Mar-17 18:34N 66°21' E 012°08'9 8.8
2017-Mar-17 17:33N 66°30' E 012°05'2 1.9
2017-Mar-17 16:33N 66°29' E 012°10'1414.1
2017-Mar-17 15:33N 66°41' E 012°31'1313.3
2017-Mar-17 14:33N 66°51' E 012°54'1212.3
2017-Mar-17 13:33N 66°60' E 013°14'1312.5
2017-Mar-17 12:33N 67°07' E 013°41'1313.3
2017-Mar-17 11:33N 67°15' E 014°08'1313.3
2017-Mar-17 10:33N 67°26' E 014°26'1413.5
2017-Mar-17 09:33N 67°39' E 014°15'1212.3
2017-Mar-17 08:33N 67°51' E 014°05'1212.5
2017-Mar-17 07:33N 68°02' E 013°56'5 5.1
2017-Mar-17 06:33N 68°07' E 013°50'1 0.6
2017-Mar-17 05:33N 68°07' E 013°50'1212.0
2017-Mar-17 04:33N 68°15' E 014°13'1212.1
2017-Mar-17 03:33N 68°26' E 014°28'8 8.3
2017-Mar-17 02:33N 68°30' E 014°48'0 0.0
2017-Mar-17 01:33N 68°30' E 014°48'1110.5
2017-Mar-17 00:33N 68°36' E 015°12'8 8.1
2017-Mar-16 23:33N 68°42' E 015°25'0 0.0
2017-Mar-16 22:33N 68°42' E 015°25'0 0.0
2017-Mar-16 21:32N 68°42' E 015°25'0 0.0
2017-Mar-16 20:32N 68°42' E 015°25'0 0.0
2017-Mar-16 19:33N 68°42' E 015°25'3 2.8
2017-Mar-16 18:32N 68°44' E 015°31'0 0.0
2017-Mar-16 17:33N 68°44' E 015°31'0 0.0
2017-Mar-16 16:33N 68°44' E 015°31'0 0.3
2017-Mar-16 15:33N 68°44' E 015°30'1312.5
2017-Mar-16 14:33N 68°56' E 015°36'1110.6
2017-Mar-16 13:34N 68°58' E 016°05'1312.7
2017-Mar-16 12:33N 68°53' E 016°38'1414.1
2017-Mar-16 11:33N 68°60' E 017°12'1313.3
2017-Mar-16 10:33N 69°08' E 017°41'1010.4
2017-Mar-16 09:33N 69°16' E 017°58'9 8.4
2017-Mar-16 08:33N 69°24' E 018°09'2 2.3
2017-Mar-16 07:33N 69°26' E 018°07'1313.2
2017-Mar-16 06:34N 69°33' E 018°39'8 7.6
2017-Mar-16 05:33N 69°38' E 018°57'0 0.0
2017-Mar-16 04:33N 69°38' E 018°57'0 0.0
2017-Mar-16 03:33N 69°38' E 018°57'0 0.0
2017-Mar-16 02:34N 69°38' E 018°57'2 1.9
2017-Mar-16 01:33N 69°39' E 018°58'0 0.0
2017-Mar-16 00:34N 69°39' E 018°58'0 0.0
2017-Mar-15 23:33N 69°39' E 018°58'0 0.0
2017-Mar-15 22:33N 69°39' E 018°58'0 0.0
2017-Mar-15 21:33N 69°39' E 018°58'0 0.0
2017-Mar-15 20:34N 69°39' E 018°58'0 0.0
2017-Mar-15 19:34N 69°39' E 018°58'0 0.0
2017-Mar-15 18:34N 69°39' E 018°58'0 0.0
2017-Mar-15 17:33N 69°39' E 018°58'0 0.0
2017-Mar-15 16:34N 69°39' E 018°58'2 1.8
2017-Mar-15 15:33N 69°41' E 019°01'1313.2
2017-Mar-15 14:33N 69°49' E 019°32'1414.5
2017-Mar-15 13:33N 69°57' E 020°07'1414.1
2017-Mar-15 12:33N 70°02' E 020°45'1413.9
2017-Mar-15 11:33N 70°14' E 021°09'1414.6
2017-Mar-15 10:33N 70°23' E 021°40'1414.0
2017-Mar-15 09:34N 70°17' E 022°18'3 3.1
2017-Mar-15 08:33N 70°14' E 022°21'3 3.1
2017-Mar-15 07:33N 70°17' E 022°19'1413.7
2017-Mar-15 06:33N 70°28' E 022°45'1414.6
2017-Mar-15 05:33N 70°37' E 023°19'6 6.4
2017-Mar-15 04:33N 70°38' E 023°38'0 0.0
2017-Mar-15 03:33N 70°38' E 023°38'0 0.0
2017-Mar-15 02:33N 70°38' E 023°38'0 0.0
2017-Mar-15 01:33N 70°38' E 023°38'1 0.7
2017-Mar-15 00:33N 70°38' E 023°40'0 0.0
2017-Mar-14 23:33N 70°38' E 023°40'3 3.5
2017-Mar-14 22:33N 70°40' E 023°31'1414.4
2017-Mar-14 21:33N 70°51' E 023°58'1515.4
2017-Mar-14 20:33N 71°02' E 024°32'4 4.3
2017-Mar-14 19:33N 70°60' E 024°44'1515.5
2017-Mar-14 18:33N 70°56' E 025°30'1414.4
2017-Mar-14 17:33N 70°56' E 026°14'1414.4
2017-Mar-14 16:32N 71°00' E 026°56'1414.0
2017-Mar-14 15:33N 71°07' E 027°33'1413.4
2017-Mar-14 14:33N 71°07' E 028°15'1414.6
2017-Mar-14 13:33N 70°59' E 028°53'1514.9
2017-Mar-14 12:33N 70°50' E 029°30'1313.1
2017-Mar-14 11:33N 70°39' E 029°47'1 1.4
2017-Mar-14 10:33N 70°38' E 029°43'0 0.0
2017-Mar-14 09:33N 70°38' E 029°43'0 0.0
2017-Mar-14 08:33N 70°38' E 029°43'0 0.0
2017-Mar-14 07:33N 70°38' E 029°43'0 0.0
2017-Mar-14 06:32N 70°38' E 029°43'0 0.0
2017-Mar-14 05:33N 70°38' E 029°43'1 0.7
2017-Mar-14 04:33N 70°38' E 029°45'1211.5
2017-Mar-14 03:33N 70°40' E 030°19'1514.8
2017-Mar-14 02:33N 70°32' E 030°55'1514.8
2017-Mar-14 01:33N 70°23' E 031°32'  

Dump ship's entire track history